Aeroporto :
LOGIN :

Iscrizione | Disclaimer

   EN    FR    IT 

 










Sommario :    VFR   VFR Marginale   IFR   IFR Intensivo   IFR Molto Intensivo
Visibilità : 
Base nubi : 
>= 8 km
>= 3000ft
5 / 8 km
1000 / 3000 ft
1500m / 5 km
500 / 1000 ft
800 / 1500m
200 / 500 ft
< 800m
< 200 ft
Simboli :   Temporali  Nebbia  Neve Forte  Precipitazioni Forti  Vento > 20 kt
SIGMETs :   Varie  Temporali  Ghiacco  Turbolenza  Onda orograficha  Ceneri Vulcaniche






- Altitudine del aeroporto : 1306 ft
- Codice IATA : ACH


LSZR - Alten Rhein

ULTIMO METAR :
  • 021520Z 24006KT 200V300 9999 -RA BKN050 07/M00 Q1029 RMK K

METARs OBSOLETI :
  • 021450Z 24006KT 200V300 9999 -RA BKN050 07/M00 Q1029 RMK K
  • 021420Z 25008KT 230V300 9999 -DZ SCT035 OVC046 07/M00 Q1029 RMK J
  • 021350Z 25008KT 230V300 9999 -DZ SCT035 OVC046 07/M00 Q1029 RMK J
  • 021320Z 26010KT 220V290 9999 SCT035 BKN048 07/M01 Q1028 RMK I
  • 021250Z 25008KT 210V290 9999 SCT035 BKN046 07/M01 Q1029 RMK H

TAF TAF LSZR
Valido dal 02 a 15 ore il 03 a 00 ore UTC


021425Z 0215/0224 26010KT 9999 SCT035 OVC045
TEMPO 0215/0224 -DZ
PROB40
TEMPO 0215/0224 27015G25KT
ATIS : +41 71 858 51 66



MetMap, La meteo Aeronautica in un colpo d'occhio ! - Copyright ORBIFLY Dicembre 2007 - Disclaimer

ORBIFLY MET'MAP TEAM :

Programmazione e sviluppo : Alexandra Zaïnal
Concezione : Baudouin d'Aumeries
Supporto tecnico e logistico : Manuel Goepfert
Aiuto : Marc-Olivier Méhu
Aiuto per la traduzione : Arnaldo La Scala




FONTI E CREDITI :

   NOAA